Terminal Aerodrome Forecast
Issued by NWS

Home | Current Version | Previous Version | Text Only | Print | Product List | Glossary On
Versions: 1 2 3 4 5 6 7 8 9 10 11 12 13 14 15 16 17 18 19 20 21 22 23 24 25 26 27 28 29 30 31 32 33 34 35 36 37 38 39 40 41 42 43 44 45 46 47 48
475
FTUS42 KGSP 171730
TAFHKY
TAF
KHKY 171730Z 1718/1818 21007KT P6SM BKN040
      TEMPO 1718/1722 VRB10G20KT 4SM TSRA BR BKN025CB
     FM180100 21005KT P6SM BKN045
     FM180400 VRB02KT P6SM SCT120
     FM181100 VRB02KT 3SM BR SCT250
     FM181300 VRB02KT P6SM FEW040 SCT250
     FM181600 24006KT P6SM SCT040=

USA.gov is the U.S. government's official web portal to all federal, state and local government web resources and services.